sensor_id;sensor_type;location;lat;lon;timestamp;P1;durP1;ratioP1;P2;durP2;ratioP2
2858;SDS011;1437;53.250;10.406;2022-09-28T00:00:20;5.60;;;3.87;;
2858;SDS011;1437;53.250;10.406;2022-09-28T00:02:48;4.70;;;3.50;;
2858;SDS011;1437;53.250;10.406;2022-09-28T00:05:18;5.63;;;4.13;;
2858;SDS011;1437;53.250;10.406;2022-09-28T00:07:45;4.63;;;3.43;;
2858;SDS011;1437;53.250;10.406;2022-09-28T00:10:12;6.50;;;3.47;;
2858;SDS011;1437;53.250;10.406;2022-09-28T00:12:40;5.93;;;3.63;;
2858;SDS011;1437;53.250;10.406;2022-09-28T00:15:07;5.80;;;3.90;;
2858;SDS011;1437;53.250;10.406;2022-09-28T00:17:34;4.83;;;3.37;;
2858;SDS011;1437;53.250;10.406;2022-09-28T00:20:02;6.63;;;3.30;;
2858;SDS011;1437;53.250;10.406;2022-09-28T00:22:30;5.80;;;3.70;;
2858;SDS011;1437;53.250;10.406;2022-09-28T00:24:57;4.40;;;3.27;;
2858;SDS011;1437;53.250;10.406;2022-09-28T00:27:24;5.57;;;3.90;;
2858;SDS011;1437;53.250;10.406;2022-09-28T00:29:54;5.03;;;3.77;;
2858;SDS011;1437;53.250;10.406;2022-09-28T00:32:23;5.77;;;3.63;;
2858;SDS011;1437;53.250;10.406;2022-09-28T00:34:51;5.33;;;3.87;;
2858;SDS011;1437;53.250;10.406;2022-09-28T00:37:33;5.67;;;3.57;;
2858;SDS011;1437;53.250;10.406;2022-09-28T00:40:03;5.07;;;4.23;;
2858;SDS011;1437;53.250;10.406;2022-09-28T00:42:31;8.27;;;4.90;;
2858;SDS011;1437;53.250;10.406;2022-09-28T00:44:58;6.37;;;3.73;;
2858;SDS011;1437;53.250;10.406;2022-09-28T00:50:11;5.87;;;4.53;;
2858;SDS011;1437;53.250;10.406;2022-09-28T00:52:42;5.77;;;3.80;;
2858;SDS011;1437;53.250;10.406;2022-09-28T00:55:12;7.97;;;3.90;;
2858;SDS011;1437;53.250;10.406;2022-09-28T00:57:41;6.40;;;3.70;;
2858;SDS011;1437;53.250;10.406;2022-09-28T01:00:10;4.73;;;3.57;;
2858;SDS011;1437;53.250;10.406;2022-09-28T01:02:37;7.40;;;5.17;;
2858;SDS011;1437;53.250;10.406;2022-09-28T01:05:06;9.23;;;5.03;;
2858;SDS011;1437;53.250;10.406;2022-09-28T01:07:34;9.83;;;5.70;;
2858;SDS011;1437;53.250;10.406;2022-09-28T01:10:02;9.03;;;5.40;;
2858;SDS011;1437;53.250;10.406;2022-09-28T01:12:30;9.80;;;7.10;;
2858;SDS011;1437;53.250;10.406;2022-09-28T01:14:57;11.23;;;6.17;;
2858;SDS011;1437;53.250;10.406;2022-09-28T01:17:29;11.83;;;5.47;;
2858;SDS011;1437;53.250;10.406;2022-09-28T01:20:03;9.93;;;6.17;;
2858;SDS011;1437;53.250;10.406;2022-09-28T01:22:48;11.73;;;7.13;;
2858;SDS011;1437;53.250;10.406;2022-09-28T01:25:29;8.00;;;6.33;;
2858;SDS011;1437;53.250;10.406;2022-09-28T01:28:02;15.20;;;7.23;;
2858;SDS011;1437;53.250;10.406;2022-09-28T01:30:30;11.60;;;7.63;;
2858;SDS011;1437;53.250;10.406;2022-09-28T01:33:02;8.80;;;6.40;;
2858;SDS011;1437;53.250;10.406;2022-09-28T01:35:31;10.93;;;7.63;;
2858;SDS011;1437;53.250;10.406;2022-09-28T01:38:02;13.23;;;8.00;;
2858;SDS011;1437;53.250;10.406;2022-09-28T01:40:33;11.43;;;7.60;;
2858;SDS011;1437;53.250;10.406;2022-09-28T01:43:03;10.40;;;7.83;;
2858;SDS011;1437;53.250;10.406;2022-09-28T01:45:32;11.87;;;7.90;;
2858;SDS011;1437;53.250;10.406;2022-09-28T01:48:01;14.23;;;8.70;;
2858;SDS011;1437;53.250;10.406;2022-09-28T01:50:29;11.60;;;6.80;;
2858;SDS011;1437;53.250;10.406;2022-09-28T01:53:03;12.47;;;8.07;;
2858;SDS011;1437;53.250;10.406;2022-09-28T01:55:32;13.27;;;8.87;;
2858;SDS011;1437;53.250;10.406;2022-09-28T01:58:00;10.97;;;8.10;;
2858;SDS011;1437;53.250;10.406;2022-09-28T02:00:29;11.97;;;8.13;;
2858;SDS011;1437;53.250;10.406;2022-09-28T02:02:59;15.57;;;9.60;;
2858;SDS011;1437;53.250;10.406;2022-09-28T02:05:28;14.60;;;9.73;;
2858;SDS011;1437;53.250;10.406;2022-09-28T02:07:57;13.17;;;8.43;;
2858;SDS011;1437;53.250;10.406;2022-09-28T02:10:26;11.70;;;8.77;;
2858;SDS011;1437;53.250;10.406;2022-09-28T02:12:55;12.90;;;8.67;;
2858;SDS011;1437;53.250;10.406;2022-09-28T02:15:27;13.37;;;9.60;;
2858;SDS011;1437;53.250;10.406;2022-09-28T02:17:56;13.77;;;8.83;;
2858;SDS011;1437;53.250;10.406;2022-09-28T02:20:26;13.90;;;9.13;;
2858;SDS011;1437;53.250;10.406;2022-09-28T02:22:54;13.60;;;8.13;;
2858;SDS011;1437;53.250;10.406;2022-09-28T02:25:27;16.90;;;9.80;;
2858;SDS011;1437;53.250;10.406;2022-09-28T02:27:57;16.93;;;9.67;;
2858;SDS011;1437;53.250;10.406;2022-09-28T02:30:25;10.93;;;7.63;;
2858;SDS011;1437;53.250;10.406;2022-09-28T02:32:53;11.63;;;8.20;;
2858;SDS011;1437;53.250;10.406;2022-09-28T02:35:23;12.47;;;9.20;;
2858;SDS011;1437;53.250;10.406;2022-09-28T02:37:50;17.00;;;8.40;;
2858;SDS011;1437;53.250;10.406;2022-09-28T02:40:18;16.27;;;9.67;;
2858;SDS011;1437;53.250;10.406;2022-09-28T02:42:52;11.87;;;8.03;;
2858;SDS011;1437;53.250;10.406;2022-09-28T02:45:26;17.27;;;8.67;;
2858;SDS011;1437;53.250;10.406;2022-09-28T02:47:58;15.23;;;9.97;;
2858;SDS011;1437;53.250;10.406;2022-09-28T02:50:31;15.70;;;10.23;;
2858;SDS011;1437;53.250;10.406;2022-09-28T02:53:14;13.80;;;9.10;;
2858;SDS011;1437;53.250;10.406;2022-09-28T02:55:48;16.10;;;10.07;;
2858;SDS011;1437;53.250;10.406;2022-09-28T02:58:19;13.63;;;7.80;;
2858;SDS011;1437;53.250;10.406;2022-09-28T03:00:49;12.83;;;9.00;;
2858;SDS011;1437;53.250;10.406;2022-09-28T03:03:19;12.17;;;8.40;;
2858;SDS011;1437;53.250;10.406;2022-09-28T03:05:52;14.73;;;8.23;;
2858;SDS011;1437;53.250;10.406;2022-09-28T03:08:22;14.17;;;8.10;;
2858;SDS011;1437;53.250;10.406;2022-09-28T03:10:52;66.00;;;36.67;;
2858;SDS011;1437;53.250;10.406;2022-09-28T03:13:21;15.93;;;8.63;;
2858;SDS011;1437;53.250;10.406;2022-09-28T03:15:48;12.97;;;8.90;;
2858;SDS011;1437;53.250;10.406;2022-09-28T03:18:15;13.97;;;8.67;;
2858;SDS011;1437;53.250;10.406;2022-09-28T03:20:43;15.83;;;10.80;;
2858;SDS011;1437;53.250;10.406;2022-09-28T03:23:12;12.17;;;8.70;;
2858;SDS011;1437;53.250;10.406;2022-09-28T03:25:39;16.70;;;8.87;;
2858;SDS011;1437;53.250;10.406;2022-09-28T03:28:06;12.93;;;8.97;;
2858;SDS011;1437;53.250;10.406;2022-09-28T03:30:34;13.77;;;9.40;;
2858;SDS011;1437;53.250;10.406;2022-09-28T03:33:01;14.23;;;9.07;;
2858;SDS011;1437;53.250;10.406;2022-09-28T03:35:28;17.30;;;8.67;;
2858;SDS011;1437;53.250;10.406;2022-09-28T03:37:55;18.03;;;9.00;;
2858;SDS011;1437;53.250;10.406;2022-09-28T03:40:23;14.43;;;9.00;;
2858;SDS011;1437;53.250;10.406;2022-09-28T03:42:50;13.00;;;8.63;;
2858;SDS011;1437;53.250;10.406;2022-09-28T03:45:20;13.30;;;8.20;;
2858;SDS011;1437;53.250;10.406;2022-09-28T03:47:47;14.83;;;8.80;;
2858;SDS011;1437;53.250;10.406;2022-09-28T03:50:18;16.10;;;10.83;;
2858;SDS011;1437;53.250;10.406;2022-09-28T03:52:45;12.67;;;8.47;;
2858;SDS011;1437;53.250;10.406;2022-09-28T03:55:12;12.53;;;8.40;;
2858;SDS011;1437;53.250;10.406;2022-09-28T03:57:40;11.63;;;8.33;;
2858;SDS011;1437;53.250;10.406;2022-09-28T04:00:08;18.67;;;9.93;;
2858;SDS011;1437;53.250;10.406;2022-09-28T04:02:35;15.53;;;9.50;;
2858;SDS011;1437;53.250;10.406;2022-09-28T04:05:02;13.97;;;9.17;;
2858;SDS011;1437;53.250;10.406;2022-09-28T04:07:30;13.17;;;9.50;;
2858;SDS011;1437;53.250;10.406;2022-09-28T04:09:57;15.03;;;7.93;;
2858;SDS011;1437;53.250;10.406;2022-09-28T04:12:24;14.00;;;8.93;;
2858;SDS011;1437;53.250;10.406;2022-09-28T04:14:52;13.70;;;8.27;;
2858;SDS011;1437;53.250;10.406;2022-09-28T04:17:19;20.67;;;10.53;;
2858;SDS011;1437;53.250;10.406;2022-09-28T04:19:46;15.27;;;10.13;;
2858;SDS011;1437;53.250;10.406;2022-09-28T04:22:13;14.63;;;9.63;;
2858;SDS011;1437;53.250;10.406;2022-09-28T04:24:40;18.83;;;10.23;;
2858;SDS011;1437;53.250;10.406;2022-09-28T04:27:08;21.03;;;10.60;;
2858;SDS011;1437;53.250;10.406;2022-09-28T04:29:53;16.50;;;10.40;;
2858;SDS011;1437;53.250;10.406;2022-09-28T04:32:21;17.87;;;10.90;;
2858;SDS011;1437;53.250;10.406;2022-09-28T04:34:48;21.23;;;11.93;;
2858;SDS011;1437;53.250;10.406;2022-09-28T04:37:15;17.70;;;12.10;;
2858;SDS011;1437;53.250;10.406;2022-09-28T04:39:42;16.90;;;11.20;;
2858;SDS011;1437;53.250;10.406;2022-09-28T04:42:09;19.83;;;12.57;;
2858;SDS011;1437;53.250;10.406;2022-09-28T04:44:36;14.80;;;10.90;;
2858;SDS011;1437;53.250;10.406;2022-09-28T04:47:07;19.67;;;12.37;;
2858;SDS011;1437;53.250;10.406;2022-09-28T04:49:37;17.60;;;11.67;;
2858;SDS011;1437;53.250;10.406;2022-09-28T04:52:04;20.77;;;12.00;;
2858;SDS011;1437;53.250;10.406;2022-09-28T04:54:31;18.30;;;11.80;;
2858;SDS011;1437;53.250;10.406;2022-09-28T04:56:59;21.50;;;13.67;;
2858;SDS011;1437;53.250;10.406;2022-09-28T04:59:26;21.43;;;12.40;;
2858;SDS011;1437;53.250;10.406;2022-09-28T05:01:54;20.97;;;13.07;;
2858;SDS011;1437;53.250;10.406;2022-09-28T05:04:24;24.73;;;12.50;;
2858;SDS011;1437;53.250;10.406;2022-09-28T05:06:52;19.90;;;13.20;;
2858;SDS011;1437;53.250;10.406;2022-09-28T05:09:20;21.93;;;12.80;;
2858;SDS011;1437;53.250;10.406;2022-09-28T05:11:47;33.37;;;20.20;;
2858;SDS011;1437;53.250;10.406;2022-09-28T05:14:14;20.80;;;13.97;;
2858;SDS011;1437;53.250;10.406;2022-09-28T05:16:45;21.53;;;13.30;;
2858;SDS011;1437;53.250;10.406;2022-09-28T05:19:12;23.13;;;12.77;;
2858;SDS011;1437;53.250;10.406;2022-09-28T05:21:43;21.03;;;12.97;;
2858;SDS011;1437;53.250;10.406;2022-09-28T05:24:14;20.83;;;13.00;;
2858;SDS011;1437;53.250;10.406;2022-09-28T05:26:42;25.73;;;13.13;;
2858;SDS011;1437;53.250;10.406;2022-09-28T05:29:09;23.23;;;13.30;;
2858;SDS011;1437;53.250;10.406;2022-09-28T05:31:36;21.93;;;12.87;;
2858;SDS011;1437;53.250;10.406;2022-09-28T05:34:03;23.30;;;13.53;;
2858;SDS011;1437;53.250;10.406;2022-09-28T05:36:31;22.30;;;13.60;;
2858;SDS011;1437;53.250;10.406;2022-09-28T05:38:59;19.67;;;12.27;;
2858;SDS011;1437;53.250;10.406;2022-09-28T05:41:28;22.07;;;13.40;;
2858;SDS011;1437;53.250;10.406;2022-09-28T05:43:55;23.73;;;14.03;;
2858;SDS011;1437;53.250;10.406;2022-09-28T05:46:22;23.10;;;13.40;;
2858;SDS011;1437;53.250;10.406;2022-09-28T05:48:49;23.40;;;13.37;;
2858;SDS011;1437;53.250;10.406;2022-09-28T05:51:19;23.53;;;14.77;;
2858;SDS011;1437;53.250;10.406;2022-09-28T05:53:52;19.87;;;13.57;;
2858;SDS011;1437;53.250;10.406;2022-09-28T05:56:29;23.83;;;14.17;;
2858;SDS011;1437;53.250;10.406;2022-09-28T05:58:57;21.17;;;14.10;;
2858;SDS011;1437;53.250;10.406;2022-09-28T06:01:29;23.70;;;13.20;;
2858;SDS011;1437;53.250;10.406;2022-09-28T06:03:56;19.00;;;12.73;;
2858;SDS011;1437;53.250;10.406;2022-09-28T06:06:23;20.37;;;14.17;;
2858;SDS011;1437;53.250;10.406;2022-09-28T06:08:51;20.07;;;13.40;;
2858;SDS011;1437;53.250;10.406;2022-09-28T06:11:18;20.70;;;13.27;;
2858;SDS011;1437;53.250;10.406;2022-09-28T06:13:52;17.20;;;11.83;;
2858;SDS011;1437;53.250;10.406;2022-09-28T06:16:20;24.13;;;15.00;;
2858;SDS011;1437;53.250;10.406;2022-09-28T06:18:48;23.57;;;14.90;;
2858;SDS011;1437;53.250;10.406;2022-09-28T06:21:17;22.53;;;14.63;;
2858;SDS011;1437;53.250;10.406;2022-09-28T06:23:44;24.43;;;14.43;;
2858;SDS011;1437;53.250;10.406;2022-09-28T06:26:15;21.37;;;15.13;;
2858;SDS011;1437;53.250;10.406;2022-09-28T06:28:42;28.90;;;15.67;;
2858;SDS011;1437;53.250;10.406;2022-09-28T06:31:11;23.70;;;14.73;;
2858;SDS011;1437;53.250;10.406;2022-09-28T06:33:38;24.77;;;14.20;;
2858;SDS011;1437;53.250;10.406;2022-09-28T06:36:06;21.97;;;13.63;;
2858;SDS011;1437;53.250;10.406;2022-09-28T06:38:34;20.93;;;13.90;;
2858;SDS011;1437;53.250;10.406;2022-09-28T06:41:01;23.57;;;14.53;;
2858;SDS011;1437;53.250;10.406;2022-09-28T06:43:28;19.83;;;13.93;;
2858;SDS011;1437;53.250;10.406;2022-09-28T06:45:55;26.47;;;15.50;;
2858;SDS011;1437;53.250;10.406;2022-09-28T06:48:23;22.50;;;14.67;;
2858;SDS011;1437;53.250;10.406;2022-09-28T06:50:54;25.47;;;13.40;;
2858;SDS011;1437;53.250;10.406;2022-09-28T06:53:23;21.37;;;14.37;;
2858;SDS011;1437;53.250;10.406;2022-09-28T06:55:52;22.17;;;14.00;;
2858;SDS011;1437;53.250;10.406;2022-09-28T06:58:21;22.87;;;14.50;;
2858;SDS011;1437;53.250;10.406;2022-09-28T07:00:49;20.03;;;13.93;;
2858;SDS011;1437;53.250;10.406;2022-09-28T07:03:19;25.10;;;16.60;;
2858;SDS011;1437;53.250;10.406;2022-09-28T07:05:50;24.00;;;13.13;;
2858;SDS011;1437;53.250;10.406;2022-09-28T07:08:21;24.17;;;14.83;;
2858;SDS011;1437;53.250;10.406;2022-09-28T07:10:49;27.20;;;14.33;;
2858;SDS011;1437;53.250;10.406;2022-09-28T07:13:21;18.53;;;12.30;;
2858;SDS011;1437;53.250;10.406;2022-09-28T07:15:52;24.03;;;14.07;;
2858;SDS011;1437;53.250;10.406;2022-09-28T07:18:20;19.80;;;13.00;;
2858;SDS011;1437;53.250;10.406;2022-09-28T07:20:50;22.47;;;12.97;;
2858;SDS011;1437;53.250;10.406;2022-09-28T07:23:17;19.20;;;13.67;;
2858;SDS011;1437;53.250;10.406;2022-09-28T07:25:45;19.60;;;12.60;;
2858;SDS011;1437;53.250;10.406;2022-09-28T07:28:13;22.50;;;12.00;;
2858;SDS011;1437;53.250;10.406;2022-09-28T07:30:43;24.43;;;13.83;;
2858;SDS011;1437;53.250;10.406;2022-09-28T07:33:11;21.63;;;11.23;;
2858;SDS011;1437;53.250;10.406;2022-09-28T07:35:38;23.93;;;13.30;;
2858;SDS011;1437;53.250;10.406;2022-09-28T07:38:13;21.10;;;13.10;;
2858;SDS011;1437;53.250;10.406;2022-09-28T07:40:46;25.53;;;14.80;;
2858;SDS011;1437;53.250;10.406;2022-09-28T07:43:31;22.23;;;13.23;;
2858;SDS011;1437;53.250;10.406;2022-09-28T07:45:58;21.90;;;12.53;;
2858;SDS011;1437;53.250;10.406;2022-09-28T07:48:27;21.60;;;13.30;;
2858;SDS011;1437;53.250;10.406;2022-09-28T07:51:01;20.70;;;12.67;;
2858;SDS011;1437;53.250;10.406;2022-09-28T07:53:29;21.50;;;12.70;;
2858;SDS011;1437;53.250;10.406;2022-09-28T07:55:58;21.90;;;14.53;;
2858;SDS011;1437;53.250;10.406;2022-09-28T07:58:31;18.07;;;11.27;;
2858;SDS011;1437;53.250;10.406;2022-09-28T08:01:02;20.07;;;12.20;;
2858;SDS011;1437;53.250;10.406;2022-09-28T08:03:31;23.00;;;14.87;;
2858;SDS011;1437;53.250;10.406;2022-09-28T08:06:11;17.13;;;11.17;;
2858;SDS011;1437;53.250;10.406;2022-09-28T08:11:30;20.90;;;12.67;;
2858;SDS011;1437;53.250;10.406;2022-09-28T08:14:02;17.67;;;11.73;;
2858;SDS011;1437;53.250;10.406;2022-09-28T08:16:33;19.33;;;12.77;;
2858;SDS011;1437;53.250;10.406;2022-09-28T08:19:09;16.67;;;11.37;;
2858;SDS011;1437;53.250;10.406;2022-09-28T08:21:39;18.77;;;11.23;;
2858;SDS011;1437;53.250;10.406;2022-09-28T08:24:12;20.20;;;13.23;;
2858;SDS011;1437;53.250;10.406;2022-09-28T08:26:40;22.60;;;13.13;;
2858;SDS011;1437;53.250;10.406;2022-09-28T08:29:10;19.83;;;12.40;;
2858;SDS011;1437;53.250;10.406;2022-09-28T08:31:38;24.70;;;13.43;;
2858;SDS011;1437;53.250;10.406;2022-09-28T08:34:07;19.10;;;11.20;;
2858;SDS011;1437;53.250;10.406;2022-09-28T08:36:38;22.13;;;13.27;;
2858;SDS011;1437;53.250;10.406;2022-09-28T08:39:09;16.00;;;11.50;;
2858;SDS011;1437;53.250;10.406;2022-09-28T08:41:38;16.17;;;10.27;;
2858;SDS011;1437;53.250;10.406;2022-09-28T08:44:14;20.50;;;12.50;;
2858;SDS011;1437;53.250;10.406;2022-09-28T08:46:48;16.90;;;11.30;;
2858;SDS011;1437;53.250;10.406;2022-09-28T08:49:24;21.93;;;12.70;;
2858;SDS011;1437;53.250;10.406;2022-09-28T08:51:58;17.53;;;11.90;;
2858;SDS011;1437;53.250;10.406;2022-09-28T08:54:37;18.87;;;12.27;;
2858;SDS011;1437;53.250;10.406;2022-09-28T08:57:13;18.77;;;12.17;;
2858;SDS011;1437;53.250;10.406;2022-09-28T08:59:44;15.80;;;11.47;;
2858;SDS011;1437;53.250;10.406;2022-09-28T09:02:18;24.23;;;14.30;;
2858;SDS011;1437;53.250;10.406;2022-09-28T09:04:46;17.37;;;11.20;;
2858;SDS011;1437;53.250;10.406;2022-09-28T09:07:26;18.87;;;12.53;;
2858;SDS011;1437;53.250;10.406;2022-09-28T09:10:01;21.07;;;11.70;;
2858;SDS011;1437;53.250;10.406;2022-09-28T09:12:32;21.03;;;12.67;;
2858;SDS011;1437;53.250;10.406;2022-09-28T09:17:59;21.73;;;12.07;;
2858;SDS011;1437;53.250;10.406;2022-09-28T09:20:32;18.77;;;12.20;;
2858;SDS011;1437;53.250;10.406;2022-09-28T09:23:09;17.97;;;10.93;;
2858;SDS011;1437;53.250;10.406;2022-09-28T09:25:41;18.50;;;11.77;;
2858;SDS011;1437;53.250;10.406;2022-09-28T09:28:27;18.30;;;12.07;;
2858;SDS011;1437;53.250;10.406;2022-09-28T09:31:01;16.30;;;10.97;;
2858;SDS011;1437;53.250;10.406;2022-09-28T09:36:23;17.00;;;10.77;;
2858;SDS011;1437;53.250;10.406;2022-09-28T09:39:02;19.00;;;11.80;;
2858;SDS011;1437;53.250;10.406;2022-09-28T09:41:46;24.43;;;15.60;;
2858;SDS011;1437;53.250;10.406;2022-09-28T09:44:25;16.20;;;11.98;;
2858;SDS011;1437;53.250;10.406;2022-09-28T09:46:58;15.40;;;10.07;;
2858;SDS011;1437;53.250;10.406;2022-09-28T09:49:41;15.77;;;11.40;;
2858;SDS011;1437;53.250;10.406;2022-09-28T09:52:20;14.60;;;10.00;;
2858;SDS011;1437;53.250;10.406;2022-09-28T09:54:52;15.77;;;10.07;;
2858;SDS011;1437;53.250;10.406;2022-09-28T09:57:23;15.03;;;11.87;;
2858;SDS011;1437;53.250;10.406;2022-09-28T09:59:59;13.70;;;10.80;;
2858;SDS011;1437;53.250;10.406;2022-09-28T10:02:38;14.83;;;10.70;;
2858;SDS011;1437;53.250;10.406;2022-09-28T10:05:15;22.17;;;11.70;;
2858;SDS011;1437;53.250;10.406;2022-09-28T10:07:45;17.10;;;10.17;;
2858;SDS011;1437;53.250;10.406;2022-09-28T10:10:16;17.10;;;10.53;;
2858;SDS011;1437;53.250;10.406;2022-09-28T10:12:45;20.80;;;10.90;;
2858;SDS011;1437;53.250;10.406;2022-09-28T10:15:14;18.07;;;11.33;;
2858;SDS011;1437;53.250;10.406;2022-09-28T10:17:42;18.73;;;11.40;;
2858;SDS011;1437;53.250;10.406;2022-09-28T10:20:10;19.90;;;10.60;;
2858;SDS011;1437;53.250;10.406;2022-09-28T10:22:40;16.43;;;10.23;;
2858;SDS011;1437;53.250;10.406;2022-09-28T10:25:12;14.87;;;10.27;;
2858;SDS011;1437;53.250;10.406;2022-09-28T10:27:43;17.50;;;10.30;;
2858;SDS011;1437;53.250;10.406;2022-09-28T10:30:18;14.90;;;10.50;;
2858;SDS011;1437;53.250;10.406;2022-09-28T10:32:52;16.33;;;11.13;;
2858;SDS011;1437;53.250;10.406;2022-09-28T10:35:27;18.37;;;11.00;;
2858;SDS011;1437;53.250;10.406;2022-09-28T10:37:56;12.77;;;9.17;;
2858;SDS011;1437;53.250;10.406;2022-09-28T10:40:28;18.10;;;10.60;;
2858;SDS011;1437;53.250;10.406;2022-09-28T10:43:02;16.87;;;9.77;;
2858;SDS011;1437;53.250;10.406;2022-09-28T10:45:32;16.33;;;10.07;;
2858;SDS011;1437;53.250;10.406;2022-09-28T10:48:04;18.43;;;9.73;;
2858;SDS011;1437;53.250;10.406;2022-09-28T10:50:34;14.33;;;10.80;;
2858;SDS011;1437;53.250;10.406;2022-09-28T10:53:09;12.67;;;9.03;;
2858;SDS011;1437;53.250;10.406;2022-09-28T10:55:37;17.67;;;10.10;;
2858;SDS011;1437;53.250;10.406;2022-09-28T10:58:16;13.57;;;9.80;;
2858;SDS011;1437;53.250;10.406;2022-09-28T11:00:49;13.53;;;9.90;;
2858;SDS011;1437;53.250;10.406;2022-09-28T11:03:17;14.90;;;9.83;;
2858;SDS011;1437;53.250;10.406;2022-09-28T11:05:51;13.10;;;8.90;;
2858;SDS011;1437;53.250;10.406;2022-09-28T11:08:21;15.40;;;11.10;;
2858;SDS011;1437;53.250;10.406;2022-09-28T11:11:07;14.63;;;10.33;;
2858;SDS011;1437;53.250;10.406;2022-09-28T11:13:43;15.80;;;11.23;;
2858;SDS011;1437;53.250;10.406;2022-09-28T11:16:22;15.13;;;10.33;;
2858;SDS011;1437;53.250;10.406;2022-09-28T11:18:50;15.27;;;10.50;;
2858;SDS011;1437;53.250;10.406;2022-09-28T11:21:21;16.53;;;10.87;;
2858;SDS011;1437;53.250;10.406;2022-09-28T11:23:54;16.73;;;10.00;;
2858;SDS011;1437;53.250;10.406;2022-09-28T11:26:34;16.27;;;11.30;;
2858;SDS011;1437;53.250;10.406;2022-09-28T11:29:02;24.00;;;10.57;;
2858;SDS011;1437;53.250;10.406;2022-09-28T11:31:30;13.17;;;9.57;;
2858;SDS011;1437;53.250;10.406;2022-09-28T11:34:04;16.30;;;9.80;;
2858;SDS011;1437;53.250;10.406;2022-09-28T11:36:42;14.93;;;8.57;;
2858;SDS011;1437;53.250;10.406;2022-09-28T11:39:14;15.60;;;10.03;;
2858;SDS011;1437;53.250;10.406;2022-09-28T11:41:50;10.93;;;8.53;;
2858;SDS011;1437;53.250;10.406;2022-09-28T11:44:23;17.20;;;9.80;;
2858;SDS011;1437;53.250;10.406;2022-09-28T11:46:56;15.17;;;8.10;;
2858;SDS011;1437;53.250;10.406;2022-09-28T11:49:30;12.20;;;8.47;;
2858;SDS011;1437;53.250;10.406;2022-09-28T11:52:01;12.17;;;7.90;;
2858;SDS011;1437;53.250;10.406;2022-09-28T11:54:37;13.50;;;10.00;;
2858;SDS011;1437;53.250;10.406;2022-09-28T11:57:12;12.83;;;8.70;;
2858;SDS011;1437;53.250;10.406;2022-09-28T11:59:42;16.80;;;9.73;;
2858;SDS011;1437;53.250;10.406;2022-09-28T12:02:13;13.00;;;8.27;;
2858;SDS011;1437;53.250;10.406;2022-09-28T12:04:42;11.37;;;7.77;;
2858;SDS011;1437;53.250;10.406;2022-09-28T12:07:11;10.90;;;7.47;;
2858;SDS011;1437;53.250;10.406;2022-09-28T12:09:40;9.93;;;7.93;;
2858;SDS011;1437;53.250;10.406;2022-09-28T12:12:12;14.40;;;8.13;;
2858;SDS011;1437;53.250;10.406;2022-09-28T12:14:42;13.77;;;7.33;;
2858;SDS011;1437;53.250;10.406;2022-09-28T12:17:13;9.97;;;6.90;;
2858;SDS011;1437;53.250;10.406;2022-09-28T12:19:45;11.53;;;7.77;;
2858;SDS011;1437;53.250;10.406;2022-09-28T12:22:16;9.60;;;8.07;;
2858;SDS011;1437;53.250;10.406;2022-09-28T12:24:46;9.17;;;7.30;;
2858;SDS011;1437;53.250;10.406;2022-09-28T12:27:22;10.27;;;8.17;;
2858;SDS011;1437;53.250;10.406;2022-09-28T12:30:04;9.83;;;7.00;;
2858;SDS011;1437;53.250;10.406;2022-09-28T12:32:37;10.77;;;6.73;;
2858;SDS011;1437;53.250;10.406;2022-09-28T12:35:10;10.57;;;6.93;;
2858;SDS011;1437;53.250;10.406;2022-09-28T12:37:52;10.00;;;7.80;;
2858;SDS011;1437;53.250;10.406;2022-09-28T12:40:29;12.00;;;7.40;;
2858;SDS011;1437;53.250;10.406;2022-09-28T12:43:07;10.00;;;7.33;;
2858;SDS011;1437;53.250;10.406;2022-09-28T12:45:42;8.97;;;8.00;;
2858;SDS011;1437;53.250;10.406;2022-09-28T12:48:20;8.33;;;6.83;;
2858;SDS011;1437;53.250;10.406;2022-09-28T12:50:54;11.30;;;8.13;;
2858;SDS011;1437;53.250;10.406;2022-09-28T12:53:28;11.00;;;8.07;;
2858;SDS011;1437;53.250;10.406;2022-09-28T12:56:03;8.03;;;6.60;;
2858;SDS011;1437;53.250;10.406;2022-09-28T12:58:42;10.63;;;6.90;;
2858;SDS011;1437;53.250;10.406;2022-09-28T13:01:17;9.97;;;6.37;;
2858;SDS011;1437;53.250;10.406;2022-09-28T13:04:00;8.67;;;5.93;;
2858;SDS011;1437;53.250;10.406;2022-09-28T13:06:35;8.80;;;5.63;;
2858;SDS011;1437;53.250;10.406;2022-09-28T13:09:13;6.03;;;5.07;;
2858;SDS011;1437;53.250;10.406;2022-09-28T13:11:48;6.27;;;4.90;;
2858;SDS011;1437;53.250;10.406;2022-09-28T13:14:28;7.43;;;4.90;;
2858;SDS011;1437;53.250;10.406;2022-09-28T13:17:02;6.00;;;4.43;;
2858;SDS011;1437;53.250;10.406;2022-09-28T13:19:55;7.17;;;4.50;;
2858;SDS011;1437;53.250;10.406;2022-09-28T13:22:29;6.33;;;4.40;;
2858;SDS011;1437;53.250;10.406;2022-09-28T13:25:03;6.90;;;4.73;;
2858;SDS011;1437;53.250;10.406;2022-09-28T13:27:37;6.93;;;4.83;;
2858;SDS011;1437;53.250;10.406;2022-09-28T13:30:12;4.30;;;3.70;;
2858;SDS011;1437;53.250;10.406;2022-09-28T13:32:40;5.87;;;3.73;;
2858;SDS011;1437;53.250;10.406;2022-09-28T13:35:11;7.20;;;4.07;;
2858;SDS011;1437;53.250;10.406;2022-09-28T13:37:39;9.30;;;4.47;;
2858;SDS011;1437;53.250;10.406;2022-09-28T13:40:06;4.93;;;3.90;;
2858;SDS011;1437;53.250;10.406;2022-09-28T13:42:38;6.30;;;4.47;;
2858;SDS011;1437;53.250;10.406;2022-09-28T13:48:04;7.60;;;3.80;;
2858;SDS011;1437;53.250;10.406;2022-09-28T13:50:41;5.40;;;3.80;;
2858;SDS011;1437;53.250;10.406;2022-09-28T13:53:14;5.77;;;3.97;;
2858;SDS011;1437;53.250;10.406;2022-09-28T13:55:48;6.43;;;4.57;;
2858;SDS011;1437;53.250;10.406;2022-09-28T13:58:18;5.60;;;4.43;;
2858;SDS011;1437;53.250;10.406;2022-09-28T14:00:48;7.83;;;5.00;;
2858;SDS011;1437;53.250;10.406;2022-09-28T14:03:40;6.30;;;5.50;;
2858;SDS011;1437;53.250;10.406;2022-09-28T14:06:27;5.60;;;4.10;;
2858;SDS011;1437;53.250;10.406;2022-09-28T14:09:23;9.23;;;4.13;;
2858;SDS011;1437;53.250;10.406;2022-09-28T14:11:54;7.40;;;4.23;;
2858;SDS011;1437;53.250;10.406;2022-09-28T14:20:14;9.20;;;5.20;;
2858;SDS011;1437;53.250;10.406;2022-09-28T14:22:46;5.40;;;4.27;;
2858;SDS011;1437;53.250;10.406;2022-09-28T14:25:20;5.17;;;3.90;;
2858;SDS011;1437;53.250;10.406;2022-09-28T14:27:58;6.00;;;4.40;;
2858;SDS011;1437;53.250;10.406;2022-09-28T14:30:31;9.00;;;4.17;;
2858;SDS011;1437;53.250;10.406;2022-09-28T14:33:14;6.40;;;3.70;;
2858;SDS011;1437;53.250;10.406;2022-09-28T14:35:52;5.00;;;3.87;;
2858;SDS011;1437;53.250;10.406;2022-09-28T14:38:21;5.93;;;4.10;;
2858;SDS011;1437;53.250;10.406;2022-09-28T14:41:09;7.10;;;5.50;;
2858;SDS011;1437;53.250;10.406;2022-09-28T14:46:31;8.60;;;5.10;;
2858;SDS011;1437;53.250;10.406;2022-09-28T14:49:03;6.93;;;4.40;;
2858;SDS011;1437;53.250;10.406;2022-09-28T14:51:52;5.87;;;4.33;;
2858;SDS011;1437;53.250;10.406;2022-09-28T14:54:24;7.77;;;4.90;;
2858;SDS011;1437;53.250;10.406;2022-09-28T14:56:56;7.27;;;5.50;;
2858;SDS011;1437;53.250;10.406;2022-09-28T14:59:38;6.50;;;4.97;;
2858;SDS011;1437;53.250;10.406;2022-09-28T15:02:11;7.90;;;4.90;;
2858;SDS011;1437;53.250;10.406;2022-09-28T15:04:44;7.27;;;5.40;;
2858;SDS011;1437;53.250;10.406;2022-09-28T15:07:19;7.40;;;6.20;;
2858;SDS011;1437;53.250;10.406;2022-09-28T15:09:49;14.93;;;5.90;;
2858;SDS011;1437;53.250;10.406;2022-09-28T15:12:19;5.27;;;4.70;;
2858;SDS011;1437;53.250;10.406;2022-09-28T15:14:50;9.30;;;5.50;;
2858;SDS011;1437;53.250;10.406;2022-09-28T15:17:21;6.07;;;4.53;;
2858;SDS011;1437;53.250;10.406;2022-09-28T15:19:56;5.70;;;4.20;;
2858;SDS011;1437;53.250;10.406;2022-09-28T15:22:26;10.80;;;5.10;;
2858;SDS011;1437;53.250;10.406;2022-09-28T15:24:55;6.93;;;4.77;;
2858;SDS011;1437;53.250;10.406;2022-09-28T15:27:23;6.13;;;4.87;;
2858;SDS011;1437;53.250;10.406;2022-09-28T15:29:54;9.77;;;6.00;;
2858;SDS011;1437;53.250;10.406;2022-09-28T15:32:22;11.80;;;5.17;;